createdAt,value
2018-09-03T00:01:30.454Z,8.53
2018-09-03T00:03:58.156Z,8.90
2018-09-03T00:06:25.827Z,8.57
2018-09-03T00:08:53.482Z,8.23
2018-09-03T00:11:21.175Z,7.53
2018-09-03T00:13:48.836Z,8.50
2018-09-03T00:16:16.518Z,8.57
2018-09-03T00:18:44.220Z,8.97
2018-09-03T00:21:11.893Z,8.50
2018-09-03T00:23:39.590Z,8.33
2018-09-03T00:26:07.293Z,8.23
2018-09-03T00:28:34.975Z,8.47
2018-09-03T00:31:08.150Z,7.93
2018-09-03T00:33:41.305Z,8.07
2018-09-03T00:36:14.428Z,8.73
2018-09-03T00:38:47.598Z,8.37
2018-09-03T00:41:20.779Z,8.17
2018-09-03T00:43:53.955Z,8.83
2018-09-03T00:46:27.170Z,8.03
2018-09-03T00:48:54.826Z,8.47
2018-09-03T00:51:22.543Z,8.30
2018-09-03T00:53:50.242Z,8.77
2018-09-03T00:56:17.942Z,8.37
2018-09-03T00:58:45.611Z,8.70
2018-09-03T01:01:13.294Z,8.43
2018-09-03T01:03:40.952Z,8.73
2018-09-03T01:06:08.627Z,8.73
2018-09-03T01:08:36.324Z,8.80
2018-09-03T01:11:04.027Z,8.87
2018-09-03T01:13:31.698Z,8.20
2018-09-03T01:15:59.385Z,9.07
2018-09-03T01:18:27.074Z,8.60
2018-09-03T01:20:54.746Z,8.73
2018-09-03T01:23:22.467Z,8.57
2018-09-03T01:25:50.159Z,8.77
2018-09-03T01:28:17.855Z,8.40
2018-09-03T01:30:45.528Z,8.40
2018-09-03T01:33:13.189Z,8.67
2018-09-03T01:35:40.832Z,12.53
2018-09-03T01:38:08.593Z,8.23
2018-09-03T01:40:36.242Z,8.63
2018-09-03T01:43:03.949Z,8.57
2018-09-03T01:45:31.642Z,8.87
2018-09-03T01:47:59.287Z,8.57
2018-09-03T01:50:26.945Z,8.80
2018-09-03T01:52:54.629Z,9.30
2018-09-03T01:55:22.298Z,8.13
2018-09-03T01:57:50.007Z,8.60
2018-09-03T02:00:17.722Z,9.43
2018-09-03T02:02:45.388Z,8.77
2018-09-03T02:05:13.051Z,8.53
2018-09-03T02:07:40.756Z,9.60
2018-09-03T02:10:08.427Z,10.37
2018-09-03T02:12:36.075Z,9.30
2018-09-03T02:15:03.827Z,9.77
2018-09-03T02:17:31.590Z,9.43
2018-09-03T02:19:59.250Z,9.47
2018-09-03T02:22:26.962Z,9.63
2018-09-03T02:24:54.655Z,9.30
2018-09-03T02:27:22.355Z,10.27
2018-09-03T02:29:50.063Z,10.33
2018-09-03T02:32:17.747Z,15.80
2018-09-03T02:34:45.414Z,14.47
2018-09-03T02:37:13.131Z,12.33
2018-09-03T02:39:40.821Z,11.23
2018-09-03T02:42:08.569Z,10.73
2018-09-03T02:44:36.317Z,9.67
2018-09-03T02:47:05.130Z,10.53
2018-09-03T02:49:32.801Z,9.13
2018-09-03T02:52:00.532Z,9.03
2018-09-03T02:54:28.221Z,9.43
2018-09-03T02:56:55.979Z,9.57
2018-09-03T02:59:23.672Z,9.53
2018-09-03T03:01:51.352Z,10.93
2018-09-03T03:04:19.037Z,10.10
2018-09-03T03:06:46.767Z,10.60
2018-09-03T03:09:14.426Z,9.87
2018-09-03T03:11:42.157Z,10.60
2018-09-03T03:14:09.899Z,10.30
2018-09-03T03:16:37.579Z,9.53
2018-09-03T03:19:05.395Z,10.37
2018-09-03T03:21:33.189Z,16.20
2018-09-03T03:24:00.907Z,19.17
2018-09-03T03:26:28.590Z,10.63
2018-09-03T03:28:56.307Z,17.67
2018-09-03T03:31:23.999Z,13.57
2018-09-03T03:33:51.826Z,11.43
2018-09-03T03:36:19.530Z,11.50
2018-09-03T03:38:47.250Z,11.80
2018-09-03T03:41:14.930Z,11.97
2018-09-03T03:43:42.639Z,11.13
2018-09-03T03:46:10.296Z,12.10
2018-09-03T03:48:37.988Z,12.03
2018-09-03T03:51:05.734Z,12.17
2018-09-03T03:53:33.417Z,11.73
2018-09-03T03:56:01.089Z,12.30
2018-09-03T03:58:28.806Z,12.40
2018-09-03T04:00:56.465Z,11.87
2018-09-03T04:03:24.133Z,11.83
2018-09-03T04:05:51.840Z,11.27
2018-09-03T04:08:19.514Z,12.60
2018-09-03T04:10:47.173Z,11.93
2018-09-03T04:13:14.860Z,11.30
2018-09-03T04:15:42.539Z,11.70
2018-09-03T04:18:10.203Z,11.67
2018-09-03T04:20:37.882Z,11.20
2018-09-03T04:23:05.832Z,11.93
2018-09-03T04:25:33.501Z,10.67
2018-09-03T04:28:01.302Z,9.83
2018-09-03T04:30:29.055Z,10.33
2018-09-03T04:32:56.734Z,10.33
2018-09-03T04:35:24.482Z,10.60
2018-09-03T04:37:52.369Z,10.40
2018-09-03T04:40:20.109Z,9.80
2018-09-03T04:42:47.803Z,10.10
2018-09-03T04:45:15.501Z,9.70
2018-09-03T04:47:43.166Z,9.07
2018-09-03T04:50:10.850Z,11.07
2018-09-03T04:52:38.549Z,10.10
2018-09-03T04:55:06.346Z,9.33
2018-09-03T04:57:34.028Z,9.53
2018-09-03T05:00:01.696Z,9.80
2018-09-03T05:02:29.358Z,10.30
2018-09-03T05:04:57.047Z,8.93
2018-09-03T05:07:24.732Z,9.23
2018-09-03T05:09:53.114Z,9.67
2018-09-03T05:12:20.834Z,9.40
2018-09-03T05:14:48.612Z,9.77
2018-09-03T05:17:16.288Z,9.23
2018-09-03T05:19:44.011Z,9.47
2018-09-03T05:22:11.672Z,9.63
2018-09-03T05:24:39.458Z,9.93
2018-09-03T05:27:07.198Z,10.03
2018-09-03T05:29:34.976Z,10.40
2018-09-03T05:32:02.711Z,10.07
2018-09-03T05:34:30.405Z,9.23
2018-09-03T05:36:58.055Z,11.37
2018-09-03T05:39:25.720Z,10.10
2018-09-03T05:41:53.462Z,10.73
2018-09-03T05:44:21.122Z,16.53
2018-09-03T05:46:48.798Z,13.20
2018-09-03T05:49:16.502Z,11.70
2018-09-03T05:51:44.179Z,11.13
2018-09-03T05:54:11.850Z,12.50
2018-09-03T05:56:39.717Z,11.43
2018-09-03T05:59:07.509Z,11.03
2018-09-03T06:01:35.209Z,11.07
2018-09-03T06:04:03.295Z,12.60
2018-09-03T06:06:31.001Z,11.73
2018-09-03T06:08:58.648Z,13.93
2018-09-03T06:11:26.406Z,13.50
2018-09-03T06:13:54.062Z,12.07
2018-09-03T06:16:22.502Z,11.53
2018-09-03T06:18:50.308Z,9.77
2018-09-03T06:21:17.995Z,10.40
2018-09-03T06:23:45.671Z,10.63
2018-09-03T06:26:13.381Z,11.47
2018-09-03T06:28:41.063Z,11.37
2018-09-03T06:31:08.753Z,10.87
2018-09-03T06:33:36.471Z,11.03
2018-09-03T06:36:04.154Z,9.93
2018-09-03T06:38:31.845Z,10.87
2018-09-03T06:40:59.567Z,10.13
2018-09-03T06:43:27.243Z,9.97
2018-09-03T06:45:54.957Z,9.50
2018-09-03T06:48:22.655Z,9.00
2018-09-03T06:50:50.329Z,9.47
2018-09-03T06:53:18.233Z,9.10
2018-09-03T06:55:46.023Z,9.07
2018-09-03T06:58:13.686Z,10.00
2018-09-03T07:00:41.331Z,9.43
2018-09-03T07:03:09.059Z,10.10
2018-09-03T07:05:36.727Z,9.27
2018-09-03T07:08:04.465Z,7.63
2018-09-03T07:10:32.187Z,8.57
2018-09-03T07:13:04.341Z,8.97
2018-09-03T07:15:32.116Z,8.47
2018-09-03T07:18:00.047Z,8.90
2018-09-03T07:20:27.718Z,8.73
2018-09-03T07:22:55.557Z,8.47
2018-09-03T07:25:23.234Z,8.93
2018-09-03T07:27:50.907Z,8.53
2018-09-03T07:30:18.613Z,8.47
2018-09-03T07:32:46.286Z,9.00
2018-09-03T07:35:13.998Z,8.37
2018-09-03T07:37:41.680Z,8.30
2018-09-03T07:40:09.366Z,9.63
2018-09-03T07:42:37.064Z,8.73
2018-09-03T07:45:05.163Z,8.77
2018-09-03T07:47:32.893Z,8.80
2018-09-03T07:50:00.575Z,8.90
2018-09-03T07:52:28.391Z,9.03
2018-09-03T07:54:56.075Z,9.17
2018-09-03T07:57:23.995Z,8.93
2018-09-03T07:59:51.728Z,9.13
2018-09-03T08:02:19.437Z,9.63
2018-09-03T08:04:47.130Z,9.67
2018-09-03T08:07:14.882Z,9.60
2018-09-03T08:09:42.695Z,8.87
2018-09-03T08:12:10.392Z,9.93
2018-09-03T08:14:38.076Z,8.27
2018-09-03T08:17:05.869Z,8.80
2018-09-03T08:19:33.581Z,7.10
2018-09-03T08:22:01.875Z,8.10
2018-09-03T08:24:29.584Z,7.83
2018-09-03T08:26:57.350Z,7.60
2018-09-03T08:29:25.086Z,8.57
2018-09-03T08:31:52.899Z,8.53
2018-09-03T08:34:20.637Z,7.20
2018-09-03T08:36:48.356Z,7.93
2018-09-03T08:39:16.035Z,6.83
2018-09-03T08:41:43.738Z,7.77
2018-09-03T08:44:11.491Z,7.30
2018-09-03T08:46:39.196Z,7.37
2018-09-03T08:49:06.970Z,6.90
2018-09-03T08:51:34.678Z,7.30
2018-09-03T08:54:02.437Z,7.00
2018-09-03T08:56:30.209Z,6.73
2018-09-03T08:58:57.985Z,7.40
2018-09-03T09:01:25.692Z,6.13
2018-09-03T09:03:53.475Z,6.60
2018-09-03T09:06:21.201Z,5.80
2018-09-03T09:08:48.908Z,6.67
2018-09-03T09:11:16.613Z,6.07
2018-09-03T09:13:44.366Z,6.63
2018-09-03T09:16:12.094Z,6.20
2018-09-03T09:18:39.868Z,6.23
2018-09-03T09:21:07.738Z,6.07
2018-09-03T09:23:35.461Z,5.60
2018-09-03T09:26:03.194Z,7.23
2018-09-03T09:28:30.971Z,6.03
2018-09-03T09:30:58.729Z,6.20
2018-09-03T09:33:26.473Z,6.80
2018-09-03T09:35:54.267Z,6.57
2018-09-03T09:38:22.073Z,6.73
2018-09-03T09:40:49.761Z,6.67
2018-09-03T09:43:17.589Z,6.30
2018-09-03T09:45:45.341Z,6.47
2018-09-03T09:48:13.146Z,6.80
2018-09-03T09:50:41.174Z,7.70
2018-09-03T09:53:08.903Z,6.73
2018-09-03T09:55:36.545Z,6.57
2018-09-03T09:58:04.325Z,6.77
2018-09-03T10:00:37.671Z,5.83
2018-09-03T10:03:05.606Z,6.37
2018-09-03T10:05:33.341Z,7.10
2018-09-03T10:08:01.041Z,6.83
2018-09-03T10:10:29.216Z,7.47
2018-09-03T10:12:57.026Z,6.70
2018-09-03T10:15:24.755Z,6.77
2018-09-03T10:17:52.517Z,8.37
2018-09-03T10:20:20.257Z,7.87
2018-09-03T10:22:48.059Z,6.93
2018-09-03T10:25:15.785Z,7.50
2018-09-03T10:27:43.485Z,7.07
2018-09-03T10:30:11.189Z,7.07
2018-09-03T10:32:39.064Z,6.60
2018-09-03T10:35:06.897Z,7.17
2018-09-03T10:37:34.692Z,7.17
2018-09-03T10:40:02.444Z,6.53
2018-09-03T10:42:30.229Z,7.20
2018-09-03T10:44:57.950Z,7.27
2018-09-03T10:47:25.690Z,6.33
2018-09-03T10:49:53.393Z,7.00
2018-09-03T10:52:21.085Z,7.20
2018-09-03T10:54:48.808Z,6.50
2018-09-03T10:57:16.514Z,7.07
2018-09-03T10:59:44.225Z,7.40
2018-09-03T11:02:11.984Z,6.90
2018-09-03T11:04:39.713Z,7.87
2018-09-03T11:07:07.890Z,7.57
2018-09-03T11:09:35.963Z,6.83
2018-09-03T11:12:04.919Z,7.20
2018-09-03T11:14:32.719Z,7.03
2018-09-03T11:17:00.442Z,6.90
2018-09-03T11:19:30.352Z,6.90
2018-09-03T11:21:58.060Z,6.77
2018-09-03T11:24:26.132Z,7.40
2018-09-03T11:26:53.876Z,6.83
2018-09-03T11:29:21.562Z,6.70
2018-09-03T11:31:49.310Z,6.90
2018-09-03T11:34:17.085Z,6.63
2018-09-03T11:36:44.815Z,6.40
2018-09-03T11:39:12.706Z,6.27
2018-09-03T11:41:41.142Z,6.93
2018-09-03T11:44:08.881Z,6.57
2018-09-03T11:46:36.920Z,6.23
2018-09-03T11:49:04.969Z,5.93
2018-09-03T11:51:32.679Z,5.90
2018-09-03T11:54:00.464Z,6.93
2018-09-03T11:56:28.207Z,6.37
2018-09-03T11:58:56.794Z,5.37
2018-09-03T12:01:24.569Z,6.57
2018-09-03T12:03:52.727Z,6.00
2018-09-03T12:06:20.415Z,6.80
2018-09-03T12:08:48.160Z,6.30
2018-09-03T12:11:15.928Z,7.20
2018-09-03T12:13:43.619Z,7.00
2018-09-03T12:16:13.256Z,7.00
2018-09-03T12:18:42.177Z,6.30
2018-09-03T12:21:10.536Z,6.90
2018-09-03T12:23:38.622Z,6.15
2018-09-03T12:26:06.938Z,5.90
2018-09-03T12:28:34.765Z,6.47
2018-09-03T12:31:02.557Z,6.10
2018-09-03T12:33:30.302Z,5.12
2018-09-03T12:35:57.973Z,5.73
2018-09-03T12:38:25.753Z,5.63
2018-09-03T12:40:53.494Z,6.30
2018-09-03T12:43:21.241Z,6.62
2018-09-03T12:45:54.395Z,5.28
2018-09-03T12:48:22.345Z,6.33
2018-09-03T12:50:50.178Z,5.67
2018-09-03T12:53:17.920Z,5.87
2018-09-03T12:55:45.601Z,6.20
2018-09-03T12:58:13.300Z,6.08
2018-09-03T13:00:41.084Z,5.80
2018-09-03T13:03:08.995Z,6.50
2018-09-03T13:05:36.712Z,5.45
2018-09-03T13:08:04.507Z,6.20
2018-09-03T13:10:32.250Z,5.90
2018-09-03T13:12:59.949Z,6.78
2018-09-03T13:15:27.721Z,6.17
2018-09-03T13:17:55.414Z,6.70
2018-09-03T13:20:23.136Z,6.80
2018-09-03T13:22:50.902Z,5.90
2018-09-03T13:25:18.635Z,6.33
2018-09-03T13:27:46.574Z,6.67
2018-09-03T13:30:14.324Z,5.83
2018-09-03T13:32:42.038Z,6.47
2018-09-03T13:35:09.742Z,6.50
2018-09-03T13:37:37.502Z,8.00
2018-09-03T13:40:05.618Z,7.63
2018-09-03T13:42:33.377Z,7.03
2018-09-03T13:45:01.206Z,6.17
2018-09-03T13:47:28.929Z,6.85
2018-09-03T13:49:56.657Z,5.60
2018-09-03T13:52:24.399Z,6.72
2018-09-03T13:54:52.160Z,7.27
2018-09-03T13:57:19.889Z,6.87
2018-09-03T13:59:47.639Z,6.10
2018-09-03T14:02:15.397Z,7.43
2018-09-03T14:04:43.189Z,6.87
2018-09-03T14:07:10.917Z,7.87
2018-09-03T14:09:38.766Z,6.53
2018-09-03T14:12:07.208Z,6.30
2018-09-03T14:14:35.005Z,6.90
2018-09-03T14:17:02.813Z,6.67
2018-09-03T14:19:30.564Z,7.43
2018-09-03T14:21:58.363Z,7.57
2018-09-03T14:24:26.113Z,7.13
2018-09-03T14:26:54.160Z,8.00
2018-09-03T14:29:21.888Z,6.00
2018-09-03T14:31:49.634Z,6.60
2018-09-03T14:34:17.377Z,7.53
2018-09-03T14:36:45.148Z,6.60
2018-09-03T14:39:12.894Z,6.20
2018-09-03T14:41:40.596Z,6.87
2018-09-03T14:44:08.908Z,6.53
2018-09-03T14:46:36.594Z,6.43
2018-09-03T14:49:05.062Z,7.47
2018-09-03T14:51:32.793Z,6.17
2018-09-03T14:54:00.485Z,6.70
2018-09-03T14:56:28.174Z,6.67
2018-09-03T14:58:55.948Z,6.57
2018-09-03T15:01:23.973Z,6.63
2018-09-03T15:03:51.677Z,6.17
2018-09-03T15:06:19.419Z,6.80
2018-09-03T15:08:47.174Z,7.00
2018-09-03T15:11:14.926Z,6.70
2018-09-03T15:13:42.765Z,6.77
2018-09-03T15:16:10.481Z,6.70
2018-09-03T15:18:38.221Z,6.53
2018-09-03T15:21:05.976Z,6.27
2018-09-03T15:23:33.808Z,6.20
2018-09-03T15:26:01.627Z,7.03
2018-09-03T15:28:29.341Z,6.60
2018-09-03T15:30:57.043Z,6.20
2018-09-03T15:33:24.773Z,6.50
2018-09-03T15:35:52.540Z,6.53
2018-09-03T15:38:20.285Z,6.27
2018-09-03T15:40:47.974Z,6.30
2018-09-03T15:43:15.793Z,6.00
2018-09-03T15:45:43.522Z,7.17
2018-09-03T15:48:11.261Z,7.07
2018-09-03T15:50:38.989Z,6.30
2018-09-03T15:53:06.761Z,7.47
2018-09-03T15:55:34.520Z,7.70
2018-09-03T15:58:02.298Z,8.10
2018-09-03T16:00:29.991Z,8.37
2018-09-03T16:02:57.756Z,9.07
2018-09-03T16:05:25.520Z,7.70
2018-09-03T16:07:53.234Z,7.33
2018-09-03T16:10:20.938Z,7.63
2018-09-03T16:12:48.649Z,7.70
2018-09-03T16:15:16.376Z,8.73
2018-09-03T16:17:44.114Z,8.73
2018-09-03T16:20:11.898Z,9.80
2018-09-03T16:22:39.659Z,8.20
2018-09-03T16:25:07.505Z,7.77
2018-09-03T16:27:35.264Z,8.20
2018-09-03T16:30:03.056Z,7.60
2018-09-03T16:32:30.725Z,7.50
2018-09-03T16:34:58.524Z,8.23
2018-09-03T16:37:26.197Z,8.10
2018-09-03T16:39:53.940Z,7.67
2018-09-03T16:42:21.744Z,8.50
2018-09-03T16:44:49.489Z,7.53
2018-09-03T16:47:17.161Z,7.43
2018-09-03T16:49:44.948Z,7.97
2018-09-03T16:52:12.662Z,7.73
2018-09-03T16:54:40.329Z,7.77
2018-09-03T16:57:08.149Z,7.67
2018-09-03T16:59:35.876Z,7.53
2018-09-03T17:02:03.614Z,7.80
2018-09-03T17:04:31.453Z,7.50
2018-09-03T17:06:59.225Z,8.47
2018-09-03T17:09:27.049Z,8.10
2018-09-03T17:11:54.833Z,8.03
2018-09-03T17:14:22.744Z,7.60
2018-09-03T17:16:50.426Z,7.27
2018-09-03T17:19:18.197Z,8.07
2018-09-03T17:21:45.888Z,8.27
2018-09-03T17:24:13.603Z,8.37
2018-09-03T17:26:41.402Z,8.53
2018-09-03T17:29:09.141Z,9.10
2018-09-03T17:31:36.825Z,8.00
2018-09-03T17:34:04.550Z,8.57
2018-09-03T17:36:32.273Z,8.20
2018-09-03T17:39:00.054Z,8.97
2018-09-03T17:41:27.791Z,8.83
2018-09-03T17:43:55.468Z,8.17
2018-09-03T17:46:23.205Z,7.00
2018-09-03T17:48:51.245Z,8.00
2018-09-03T17:51:18.965Z,8.70
2018-09-03T17:53:46.701Z,9.20
2018-09-03T17:56:14.494Z,10.80
2018-09-03T17:58:42.322Z,10.33
2018-09-03T18:01:10.072Z,9.57
2018-09-03T18:03:37.957Z,9.60
2018-09-03T18:06:05.915Z,8.30
2018-09-03T18:08:33.769Z,10.17
2018-09-03T18:11:01.537Z,7.13
2018-09-03T18:13:29.296Z,8.37
2018-09-03T18:15:56.998Z,8.80
2018-09-03T18:18:24.785Z,8.33
2018-09-03T18:20:52.478Z,7.80
2018-09-03T18:23:20.166Z,7.60
2018-09-03T18:25:47.917Z,7.60
2018-09-03T18:28:15.632Z,7.77
2018-09-03T18:30:43.457Z,7.60
2018-09-03T18:33:11.313Z,7.37
2018-09-03T18:35:39.018Z,7.23
2018-09-03T18:38:06.729Z,7.47
2018-09-03T18:40:34.504Z,7.47
2018-09-03T18:43:02.337Z,7.17
2018-09-03T18:45:30.057Z,8.17
2018-09-03T18:47:57.818Z,7.83
2018-09-03T18:50:25.533Z,7.00
2018-09-03T18:52:53.338Z,7.20
2018-09-03T18:55:21.061Z,7.50
2018-09-03T18:57:48.821Z,7.20
2018-09-03T19:00:16.565Z,7.77
2018-09-03T19:02:44.283Z,7.50
2018-09-03T19:05:12.050Z,6.77
2018-09-03T19:07:39.765Z,7.30
2018-09-03T19:10:07.568Z,7.27
2018-09-03T19:12:35.274Z,7.20
2018-09-03T19:15:03.025Z,6.87
2018-09-03T19:17:30.765Z,6.83
2018-09-03T19:19:58.497Z,6.80
2018-09-03T19:22:26.226Z,6.80
2018-09-03T19:24:54.025Z,7.23
2018-09-03T19:27:21.852Z,7.20
2018-09-03T19:29:49.548Z,7.90
2018-09-03T19:32:17.312Z,6.97
2018-09-03T19:34:45.045Z,7.47
2018-09-03T19:37:12.768Z,6.60
2018-09-03T19:39:40.544Z,7.93
2018-09-03T19:42:08.433Z,7.70
2018-09-03T19:44:36.135Z,7.90
2018-09-03T19:47:03.858Z,7.80
2018-09-03T19:49:31.593Z,7.70
2018-09-03T19:51:59.363Z,7.87
2018-09-03T19:54:27.149Z,7.33
2018-09-03T19:56:54.848Z,7.20
2018-09-03T19:59:22.554Z,7.30
2018-09-03T20:01:50.284Z,7.47
2018-09-03T20:04:17.988Z,7.30
2018-09-03T20:06:45.657Z,7.23
2018-09-03T20:09:13.408Z,7.93
2018-09-03T20:11:41.154Z,7.00
2018-09-03T20:14:08.836Z,8.20
2018-09-03T20:16:36.637Z,7.90
2018-09-03T20:19:04.397Z,8.33
2018-09-03T20:21:32.080Z,7.77
2018-09-03T20:23:59.935Z,8.10
2018-09-03T20:26:27.620Z,7.63
2018-09-03T20:28:55.337Z,8.00
2018-09-03T20:31:23.102Z,8.00
2018-09-03T20:33:50.826Z,8.03
2018-09-03T20:36:18.561Z,8.37
2018-09-03T20:38:46.325Z,9.17
2018-09-03T20:41:14.351Z,7.80
2018-09-03T20:43:42.088Z,8.37
2018-09-03T20:46:09.813Z,8.17
2018-09-03T20:48:37.657Z,8.30
2018-09-03T20:51:06.219Z,8.53
2018-09-03T20:53:33.983Z,8.60
2018-09-03T20:56:01.938Z,8.77
2018-09-03T20:58:29.785Z,8.70
2018-09-03T21:00:57.527Z,7.63
2018-09-03T21:03:25.232Z,8.87
2018-09-03T21:05:52.960Z,8.00
2018-09-03T21:08:20.834Z,7.97
2018-09-03T21:10:48.472Z,8.10
2018-09-03T21:13:16.205Z,8.07
2018-09-03T21:15:43.953Z,8.03
2018-09-03T21:18:11.629Z,7.50
2018-09-03T21:20:39.313Z,7.43
2018-09-03T21:23:07.118Z,7.40
2018-09-03T21:25:34.881Z,7.63
2018-09-03T21:28:03.470Z,7.90
2018-09-03T21:30:31.205Z,7.40
2018-09-03T21:32:58.904Z,7.77
2018-09-03T21:35:26.631Z,7.93
2018-09-03T21:37:54.819Z,9.10
2018-09-03T21:40:22.546Z,10.07
2018-09-03T21:42:50.195Z,10.30
2018-09-03T21:45:17.936Z,10.33
2018-09-03T21:47:45.676Z,10.67
2018-09-03T21:50:13.354Z,9.93
2018-09-03T21:52:41.066Z,10.30
2018-09-03T21:55:08.764Z,9.43
2018-09-03T21:57:36.451Z,10.73
2018-09-03T22:00:04.598Z,10.80
2018-09-03T22:02:32.287Z,12.13
2018-09-03T22:04:59.975Z,12.53
2018-09-03T22:07:27.719Z,12.47
2018-09-03T22:09:55.414Z,11.23
2018-09-03T22:12:23.085Z,10.70
2018-09-03T22:14:50.773Z,10.90
2018-09-03T22:17:18.463Z,11.93
2018-09-03T22:19:46.147Z,11.10
2018-09-03T22:22:13.854Z,12.17
2018-09-03T22:24:41.657Z,13.07
2018-09-03T22:27:09.339Z,12.30
2018-09-03T22:29:37.046Z,11.87
2018-09-03T22:32:04.831Z,13.00
2018-09-03T22:34:32.523Z,12.13
2018-09-03T22:37:00.217Z,12.97
2018-09-03T22:39:27.885Z,13.07
2018-09-03T22:41:55.543Z,13.07
2018-09-03T22:44:23.255Z,13.63
2018-09-03T22:46:50.937Z,13.00
2018-09-03T22:49:18.628Z,12.57
2018-09-03T22:51:46.356Z,13.27
2018-09-03T22:54:14.019Z,13.57
2018-09-03T22:56:41.718Z,13.23
2018-09-03T22:59:09.434Z,12.83
2018-09-03T23:01:37.101Z,13.53
2018-09-03T23:04:04.889Z,12.13
2018-09-03T23:06:32.563Z,12.60
2018-09-03T23:09:00.246Z,12.40
2018-09-03T23:11:27.980Z,12.70
2018-09-03T23:13:55.702Z,12.67
2018-09-03T23:16:23.423Z,12.77
2018-09-03T23:18:51.186Z,12.73
2018-09-03T23:21:19.040Z,12.73
2018-09-03T23:23:46.811Z,12.40
2018-09-03T23:26:14.501Z,12.57
2018-09-03T23:28:42.255Z,13.07
2018-09-03T23:31:09.970Z,12.57
2018-09-03T23:33:37.707Z,11.70
2018-09-03T23:36:05.449Z,13.17
2018-09-03T23:38:33.228Z,12.33
2018-09-03T23:41:00.929Z,13.37
2018-09-03T23:43:28.765Z,13.53
2018-09-03T23:45:56.553Z,14.33
2018-09-03T23:48:24.299Z,13.37
2018-09-03T23:50:52.197Z,13.67
2018-09-03T23:53:19.933Z,13.20
2018-09-03T23:55:47.838Z,13.67
2018-09-03T23:58:15.538Z,14.13
